Basseterre, Saint Kitts and Nevis

9:14 AM AST on February 07, 2016 (GMT -0400)
Robert L Bradshaw International | | Change Station
CLOSE
Current Station
Airport
Location: St. Kitts,
Elevation: 157 ft
Nearby Weather Stations

Elev 157 ft 17.30 °N, 62.68 °W | Updated 14 minutes ago

Partly Cloudy
Partly Cloudy
82 °F
Feels Like 86 °F
N
13
Wind Variable Wind from East

Today
High -- | Low -- °F
--% Chance of Precip.
Yesterday
High -- | Low -- °F
Precip. -- in
Pressure 30.06 in
Visibility 6.2 miles
Clouds Few 2400 ft
Heat Index 86 °F
Dew Point 70 °F
Humidity 66%
Rainfall 0.00 in
Snow Depth Not available.
6:41 AM 6:09 PM
Waning Crescent, 2% visible
METAR TKPK 071300Z 09011KT 9999 FEW024 28/21 Q1018
Pressure 30.06 in
Visibility 6.2 miles
Clouds Few 2400 ft
Heat Index 86 °F
Dew Point 70 °F
Humidity 66%
Rainfall 0.00 in
Snow Depth Not available.
6:41 AM 6:09 PM
Waning Crescent, 2% visible
METAR TKPK 071300Z 09011KT 9999 FEW024 28/21 Q1018

10-Day Weather Forecast

No radar image for this location.
×

Almanac

Astronomy

Feb. 07, 2016 Rise Set
Actual Time
Civil Twilight
Nautical Twilight
Astronomical Twilight
Moon
Length of Visible Light
Length of Day
Tomorrow will be .
, % of the Moon is Illuminated

Today's Extremes

Country Highs Country Lows

Community

WunderPhotos

Upload Photos

1,891,190 photos uploaded!

WunderBlog® & News

Nearby

Air Quality

  Air Quality AQ Index Pollutant
Not available.

Snow Depth

Station Depth Elevation

Earthquake Activity

City Distance Mag. Time & Date
Minimum magnitude displayed is 2.5.

Coastal Water Temperatures

Place Temperature

Stations

Nearby Weather Stations

Station Location Temp. Windchill Dew Point Humidity Wind Precip. Elev Updated Type